Time;durP1;ratioP1;P1;durP2;ratioP2;P2;SDS_P1;SDS_P2;PMS_P1;PMS_P2;Temp;Humidity;BMP_temperature;BMP_pressure;BME280_temperature;BME280_humidity;BME280_pressure;Samples;Min_cycle;Max_cycle;Signal;HPM_P1;HPM_P2
2021/03/02 00:01:34;;;;;;;17.58;11.07;;;5.60;99.90;;;;;;4991463;28;20843;-78
2021/03/02 00:04:03;;;;;;;17.85;10.77;;;5.60;99.90;;;;;;4993193;28;20387;-78
2021/03/02 00:06:29;;;;;;;16.30;11.27;;;;;;;;;;4990893;28;20434;-78
2021/03/02 00:08:55;;;;;;;18.37;12.13;;;5.70;99.90;;;;;;4992359;28;20472;-77
2021/03/02 00:11:23;;;;;;;17.35;11.52;;;6.10;99.90;;;;;;4987991;28;20423;-78
2021/03/02 00:13:48;;;;;;;16.92;11.18;;;5.80;99.90;;;;;;4989697;28;20395;-79
2021/03/02 00:16:20;;;;;;;20.95;12.93;;;5.60;99.90;;;;;;4987533;28;20407;-79
2021/03/02 00:18:50;;;;;;;19.95;12.27;;;5.90;99.90;;;;;;4979430;28;20748;-79
2021/03/02 00:21:19;;;;;;;18.23;12.00;;;5.60;99.90;;;;;;4985855;28;20381;-79
2021/03/02 00:24:00;;;;;;;18.05;12.10;;;6.00;99.90;;;;;;4991876;28;20392;-79
2021/03/02 00:26:27;;;;;;;18.80;12.27;;;5.70;99.90;;;;;;4983016;28;20380;-79
2021/03/02 00:28:55;;;;;;;17.00;11.48;;;6.10;99.90;;;;;;4994553;28;20400;-78
2021/03/02 00:31:23;;;;;;;19.35;12.32;;;5.90;99.90;;;;;;4998428;28;20394;-79
2021/03/02 00:33:48;;;;;;;18.55;12.40;;;5.80;99.90;;;;;;4992360;28;20390;-78
2021/03/02 00:36:14;;;;;;;19.45;12.82;;;8.40;99.90;;;;;;5015183;28;20438;-79
2021/03/02 00:38:39;;;;;;;19.77;12.75;;;5.60;99.90;;;;;;4992052;28;20386;-79
2021/03/02 00:41:05;;;;;;;20.38;13.57;;;5.40;99.90;;;;;;4984486;28;20388;-78
2021/03/02 00:43:31;;;;;;;19.48;13.27;;;5.60;99.90;;;;;;4992809;28;20387;-79
2021/03/02 00:45:56;;;;;;;19.58;13.32;;;5.50;99.90;;;;;;4991255;28;20398;-78
2021/03/02 00:48:22;;;;;;;19.70;13.38;;;5.60;99.90;;;;;;4990517;28;20395;-79
2021/03/02 00:50:48;;;;;;;20.58;13.52;;;;;;;;;;4991409;28;20386;-80
2021/03/02 00:53:14;;;;;;;20.17;13.83;;;;;;;;;;4987812;28;20699;-79
2021/03/02 00:55:41;;;;;;;20.67;12.93;;;6.00;99.90;;;;;;4986846;28;20410;-78
2021/03/02 00:58:06;;;;;;;19.85;13.43;;;8.50;99.90;;;;;;4991578;28;20386;-77
2021/03/02 01:00:32;;;;;;;21.13;13.52;;;5.60;99.90;;;;;;4990334;28;20475;-77
2021/03/02 01:02:57;;;;;;;22.17;13.85;;;5.70;99.90;;;;;;4995268;28;20396;-78
2021/03/02 01:05:23;;;;;;;21.50;14.15;;;5.50;99.90;;;;;;4991282;28;20396;-77
2021/03/02 01:07:48;;;;;;;21.57;13.63;;;5.50;99.90;;;;;;4993528;28;20408;-78
2021/03/02 01:10:14;;;;;;;21.37;13.53;;;5.20;99.90;;;;;;4990231;28;20504;-77
2021/03/02 01:12:40;;;;;;;20.20;14.10;;;5.50;99.90;;;;;;4994270;28;21066;-78
2021/03/02 01:15:08;;;;;;;21.45;14.38;;;5.40;99.90;;;;;;4993935;28;20406;-77
2021/03/02 01:17:33;;;;;;;21.67;14.32;;;6.10;99.90;;;;;;4993461;28;20481;-78
2021/03/02 01:19:59;;;;;;;21.55;14.07;;;5.50;99.90;;;;;;4995053;28;20901;-78
2021/03/02 01:22:25;;;;;;;21.27;14.10;;;;;;;;;;4994009;28;20565;-80
2021/03/02 01:24:51;;;;;;;22.07;14.57;;;;;;;;;;4988774;28;20388;-80
2021/03/02 01:27:17;;;;;;;22.25;15.07;;;;;;;;;;4986449;28;20398;-80
2021/03/02 01:29:43;;;;;;;23.02;15.05;;;5.20;99.90;;;;;;4991416;28;20402;-79
2021/03/02 01:32:08;;;;;;;22.10;14.57;;;5.20;99.90;;;;;;4997909;28;20395;-78
2021/03/02 01:34:34;;;;;;;23.10;15.83;;;5.30;99.90;;;;;;4998436;28;20786;-78
2021/03/02 01:37:01;;;;;;;25.10;15.33;;;5.30;99.90;;;;;;4992961;28;20443;-79
2021/03/02 01:39:27;;;;;;;23.73;15.20;;;5.30;99.90;;;;;;4989897;28;20451;-78
2021/03/02 01:41:55;;;;;;;23.50;15.52;;;5.10;99.90;;;;;;4986269;28;20393;-78
2021/03/02 01:44:21;;;;;;;23.35;15.55;;;;;;;;;;4998567;28;20391;-80
2021/03/02 01:46:50;;;;;;;23.98;15.63;;;5.20;99.90;;;;;;4989535;28;20855;-79
2021/03/02 01:49:16;;;;;;;22.60;14.77;;;;;;;;;;5010630;28;20409;-80
2021/03/02 01:51:42;;;;;;;23.27;15.50;;;4.80;99.90;;;;;;4991376;28;20395;-79
2021/03/02 01:54:10;;;;;;;22.73;15.93;;;5.50;99.90;;;;;;5009343;28;20405;-79
2021/03/02 01:56:35;;;;;;;23.73;16.23;;;5.10;99.90;;;;;;4992933;28;20490;-80
2021/03/02 01:59:01;;;;;;;24.80;15.97;;;5.10;99.90;;;;;;4987295;28;20486;-79
2021/03/02 02:01:27;;;;;;;23.43;16.10;;;5.40;99.90;;;;;;4981686;28;20412;-79
2021/03/02 02:03:57;;;;;;;24.00;16.43;;;5.00;99.90;;;;;;4981819;28;20907;-80
2021/03/02 02:06:41;;;;;;;23.60;16.10;;;4.90;99.90;;;;;;4982249;28;20384;-78
2021/03/02 02:09:31;;;;;;;26.02;16.17;;;5.10;99.90;;;;;;4987404;28;20492;-79
2021/03/02 02:12:18;;;;;;;24.38;16.30;;;5.00;99.90;;;;;;4983979;28;20388;-79
2021/03/02 02:14:46;;;;;;;27.48;17.55;;;5.10;99.90;;;;;;4986116;28;20819;-79
2021/03/02 02:17:27;;;;;;;27.73;17.47;;;5.00;99.90;;;;;;4984868;28;20899;-80
2021/03/02 02:19:56;;;;;;;25.92;18.30;;;5.20;99.90;;;;;;4984851;28;20427;-79
2021/03/02 02:22:28;;;;;;;25.50;17.13;;;5.00;99.90;;;;;;4982037;28;20392;-80
2021/03/02 02:25:22;;;;;;;25.90;17.10;;;5.00;99.90;;;;;;4983151;28;20411;-80
2021/03/02 02:27:52;;;;;;;26.35;17.88;;;4.90;99.90;;;;;;4981775;28;20384;-78
2021/03/02 02:30:19;;;;;;;28.25;17.58;;;5.30;99.90;;;;;;4981987;28;20875;-78
2021/03/02 02:32:47;;;;;;;28.17;19.02;;;4.80;99.90;;;;;;4980353;28;20851;-78
2021/03/02 02:35:15;;;;;;;28.77;18.27;;;4.70;99.90;;;;;;4990762;28;20434;-78
2021/03/02 02:37:43;;;;;;;29.35;19.55;;;4.90;99.90;;;;;;5000035;28;20396;-78
2021/03/02 02:40:09;;;;;;;30.10;19.58;;;5.20;99.90;;;;;;4981309;28;20388;-77
2021/03/02 02:42:36;;;;;;;29.52;19.75;;;4.70;99.90;;;;;;4981013;28;20396;-78
2021/03/02 02:45:03;;;;;;;28.70;19.27;;;5.00;99.90;;;;;;4966776;28;20390;-78
2021/03/02 02:47:28;;;;;;;31.13;19.60;;;4.70;99.90;;;;;;4977786;28;20418;-77
2021/03/02 02:49:54;;;;;;;30.85;20.17;;;4.60;99.90;;;;;;4977951;28;20446;-78
2021/03/02 02:52:21;;;;;;;29.55;18.55;;;4.80;99.90;;;;;;4974850;28;20403;-78
2021/03/02 02:54:48;;;;;;;28.02;18.55;;;4.80;99.90;;;;;;4974727;28;20407;-78
2021/03/02 02:57:17;;;;;;;26.98;17.50;;;4.60;99.90;;;;;;4974721;28;20640;-78
2021/03/02 02:59:46;;;;;;;26.30;16.95;;;4.70;99.90;;;;;;4975273;28;20395;-77
2021/03/02 03:02:19;;;;;;;26.00;17.33;;;4.70;99.90;;;;;;4974475;28;20400;-77
2021/03/02 03:05:08;;;;;;;26.52;17.13;;;4.40;99.90;;;;;;4974733;28;20391;-78
2021/03/02 03:07:39;;;;;;;27.17;17.50;;;4.70;99.90;;;;;;4975271;28;20469;-78
2021/03/02 03:10:07;;;;;;;24.73;16.70;;;4.20;99.90;;;;;;4957818;28;20412;-78
2021/03/02 03:12:39;;;;;;;26.02;17.10;;;4.50;99.90;;;;;;4969415;28;20403;-78
2021/03/02 03:15:08;;;;;;;26.17;16.88;;;4.20;99.90;;;;;;4971500;28;20535;-78
2021/03/02 03:17:41;;;;;;;25.95;16.35;;;4.10;99.90;;;;;;4970841;28;20522;-78
2021/03/02 03:20:10;;;;;;;27.05;16.77;;;3.90;99.90;;;;;;4974806;28;20541;-78
2021/03/02 03:22:38;;;;;;;24.85;16.50;;;4.00;99.90;;;;;;4974659;28;20483;-78
2021/03/02 03:25:05;;;;;;;25.33;16.85;;;4.10;99.90;;;;;;4975587;28;20426;-78
2021/03/02 03:27:34;;;;;;;26.60;17.70;;;4.00;99.90;;;;;;4976462;28;20447;-79
2021/03/02 03:30:01;;;;;;;26.80;17.38;;;4.00;99.90;;;;;;4964575;28;20389;-79
2021/03/02 03:32:28;;;;;;;27.67;17.70;;;4.10;99.90;;;;;;4973760;28;20384;-77
2021/03/02 03:34:55;;;;;;;28.15;18.23;;;3.90;99.90;;;;;;4988721;28;20389;-77
2021/03/02 03:37:23;;;;;;;30.65;19.60;;;4.00;99.90;;;;;;4980301;28;20395;-80
2021/03/02 03:39:49;;;;;;;29.73;19.15;;;4.00;99.90;;;;;;4976389;28;20414;-78
2021/03/02 03:42:14;;;;;;;30.60;20.00;;;3.90;99.90;;;;;;4976731;28;20941;-78
2021/03/02 03:44:40;;;;;;;30.13;19.10;;;4.20;99.90;;;;;;4975042;28;20384;-77
2021/03/02 03:47:06;;;;;;;31.70;20.27;;;4.10;99.90;;;;;;4975777;28;20775;-77
2021/03/02 03:49:31;;;;;;;29.93;20.37;;;4.10;99.90;;;;;;4975711;28;20795;-78
2021/03/02 03:51:59;;;;;;;31.63;20.33;;;4.60;99.90;;;;;;4977090;28;20407;-79
2021/03/02 03:54:28;;;;;;;28.92;19.05;;;4.20;99.90;;;;;;4979801;28;20506;-79
2021/03/02 03:56:54;;;;;;;30.08;19.23;;;;;;;;;;4976911;28;20412;-78
2021/03/02 03:59:23;;;;;;;29.60;19.05;;;4.10;99.90;;;;;;4978920;28;20450;-78
2021/03/02 04:01:50;;;;;;;26.42;17.60;;;4.00;99.90;;;;;;4955670;28;20394;-77
2021/03/02 04:04:16;;;;;;;28.05;17.98;;;3.60;99.90;;;;;;4967850;28;20388;-77
2021/03/02 04:06:42;;;;;;;29.45;18.17;;;3.30;99.90;;;;;;4975672;28;20407;-78
2021/03/02 04:09:08;;;;;;;28.70;18.27;;;3.30;99.90;;;;;;4980099;28;20399;-78
2021/03/02 04:11:35;;;;;;;27.80;18.00;;;3.30;99.90;;;;;;4980425;28;20416;-78
2021/03/02 04:14:01;;;;;;;27.42;17.73;;;3.40;99.90;;;;;;4980686;28;20386;-78
2021/03/02 04:16:26;;;;;;;27.67;18.40;;;3.20;99.90;;;;;;4980482;28;20404;-78
2021/03/02 04:18:52;;;;;;;29.23;18.30;;;3.40;99.90;;;;;;4981066;28;20471;-78
2021/03/02 04:21:18;;;;;;;32.55;19.30;;;3.30;99.90;;;;;;4980576;28;20388;-78
2021/03/02 04:23:44;;;;;;;29.27;18.45;;;3.40;99.90;;;;;;4981850;28;20415;-78
2021/03/02 04:26:10;;;;;;;29.88;18.45;;;3.10;99.90;;;;;;4980926;28;20408;-78
2021/03/02 04:28:36;;;;;;;29.93;18.70;;;;;;;;;;4981952;28;20491;-78
2021/03/02 04:31:01;;;;;;;29.93;19.37;;;3.00;99.90;;;;;;4981109;28;20439;-78
2021/03/02 04:33:27;;;;;;;29.05;18.70;;;;;;;;;;4982052;28;20452;-78
2021/03/02 04:35:53;;;;;;;32.15;20.45;;;3.00;99.90;;;;;;4981026;28;20906;-79
2021/03/02 04:38:19;;;;;;;34.03;20.13;;;3.00;99.90;;;;;;4978336;28;20399;-78
2021/03/02 04:40:45;;;;;;;33.13;20.87;;;;;;;;;;4979581;28;20866;-78
2021/03/02 04:43:11;;;;;;;31.92;19.67;;;;;;;;;;4977406;28;20418;-78
2021/03/02 04:45:37;;;;;;;32.78;20.63;;;;;;;;;;4963409;28;20401;-77
2021/03/02 04:48:03;;;;;;;32.90;20.90;;;2.90;99.90;;;;;;4987434;28;20396;-78
2021/03/02 04:50:28;;;;;;;34.25;21.80;;;2.90;99.90;;;;;;4980315;28;20396;-77
2021/03/02 04:52:54;;;;;;;34.75;22.15;;;3.00;99.90;;;;;;4979947;28;20875;-77
2021/03/02 04:55:20;;;;;;;36.15;22.13;;;;;;;;;;4980770;28;20416;-77
2021/03/02 04:57:45;;;;;;;37.15;22.20;;;2.80;99.90;;;;;;4976365;28;20397;-77
2021/03/02 05:00:12;;;;;;;34.80;20.60;;;2.70;99.90;;;;;;4983815;28;20456;-77
2021/03/02 05:02:38;;;;;;;33.75;20.63;;;2.60;99.90;;;;;;4984260;28;20399;-79
2021/03/02 05:05:05;;;;;;;34.03;21.73;;;3.00;99.90;;;;;;4976213;28;20392;-77
2021/03/02 05:07:31;;;;;;;34.15;21.20;;;;;;;;;;4977799;28;20948;-78
2021/03/02 05:10:01;;;;;;;34.72;21.30;;;;;;;;;;4997492;28;20419;-78
2021/03/02 05:12:28;;;;;;;35.40;21.20;;;;;;;;;;4981948;28;20449;-78
2021/03/02 05:14:54;;;;;;;34.65;21.70;;;;;;;;;;4994210;28;20383;-78
2021/03/02 05:17:19;;;;;;;33.33;21.07;;;2.50;99.90;;;;;;4994635;28;20771;-78
2021/03/02 05:19:45;;;;;;;35.67;21.47;;;2.60;99.90;;;;;;4979816;28;20404;-76
2021/03/02 05:22:10;;;;;;;34.27;21.00;;;2.80;99.90;;;;;;4974492;28;20396;-75
2021/03/02 05:24:36;;;;;;;40.00;24.03;;;2.30;99.90;;;;;;4974471;28;20400;-77
2021/03/02 05:27:01;;;;;;;38.57;23.57;;;2.50;99.90;;;;;;4974486;28;20466;-77
2021/03/02 05:29:27;;;;;;;41.42;25.25;;;2.50;99.90;;;;;;4974763;28;20392;-77
2021/03/02 05:31:53;;;;;;;40.15;24.55;;;2.30;99.90;;;;;;4977162;28;20391;-77
2021/03/02 05:34:34;;;;;;;;;;;;;;;;;;;;;
2021/03/02 05:37:00;;;;;;;47.15;29.17;;;2.40;99.90;;;;;;4983240;28;20492;-77
2021/03/02 05:39:25;;;;;;;47.97;29.50;;;2.30;99.90;;;;;;4975196;28;20479;-77
2021/03/02 05:41:51;;;;;;;45.60;27.97;;;2.60;99.90;;;;;;4973825;28;20472;-77
2021/03/02 05:44:17;;;;;;;48.43;30.13;;;2.40;99.90;;;;;;4975058;28;20494;-77
2021/03/02 05:46:43;;;;;;;52.55;31.85;;;;;;;;;;4973421;28;20388;-77
2021/03/02 05:49:14;;;;;;;49.63;31.80;;;2.20;99.90;;;;;;4974006;28;20760;-77
2021/03/02 05:51:41;;;;;;;64.85;38.42;;;2.10;99.90;;;;;;4973837;28;20393;-77
2021/03/02 05:54:09;;;;;;;57.47;33.07;;;2.30;99.90;;;;;;4975183;28;20385;-77
2021/03/02 05:56:39;;;;;;;51.47;30.40;;;2.20;99.90;;;;;;4979459;28;20909;-77
2021/03/02 05:59:05;;;;;;;42.80;25.95;;;2.10;99.90;;;;;;4992860;28;20408;-78
2021/03/02 06:01:31;;;;;;;42.80;26.67;;;2.20;99.90;;;;;;4978149;28;20512;-77
2021/03/02 06:03:57;;;;;;;43.08;25.83;;;;;;;;;;4981166;28;20794;-79
2021/03/02 06:06:23;;;;;;;41.80;26.02;;;2.20;99.90;;;;;;4987978;28;20460;-79
2021/03/02 06:08:49;;;;;;;42.42;25.50;;;2.20;99.90;;;;;;4989589;28;20451;-78
2021/03/02 06:11:30;;;;;;;41.42;25.08;;;2.00;99.90;;;;;;4989156;28;20911;-78
2021/03/02 06:14:21;;;;;;;38.30;24.15;;;2.20;99.90;;;;;;4984521;28;20811;-78
2021/03/02 06:16:49;;;;;;;38.20;22.75;;;2.10;99.90;;;;;;4984428;28;20391;-79
2021/03/02 06:19:34;;;;;;;36.97;22.63;;;2.10;99.90;;;;;;4986984;28;20903;-79
2021/03/02 06:22:00;;;;;;;34.80;21.92;;;;;;;;;;5001116;28;20411;-79
2021/03/02 06:24:40;;;;;;;34.08;21.45;;;2.10;99.90;;;;;;4984648;28;20432;-79
2021/03/02 06:27:11;;;;;;;37.92;23.00;;;2.40;99.90;;;;;;4985337;28;20514;-79
2021/03/02 06:29:39;;;;;;;64.85;53.03;;;2.20;99.90;;;;;;5001785;28;20386;-79
2021/03/02 06:32:06;;;;;;;40.20;23.30;;;;;;;;;;4986021;28;20394;-79
2021/03/02 06:34:32;;;;;;;41.38;25.42;;;;;;;;;;4982847;28;20383;-79
2021/03/02 06:37:05;;;;;;;41.57;24.90;;;2.00;99.90;;;;;;4993509;28;20415;-79
2021/03/02 06:39:39;;;;;;;38.78;24.77;;;2.10;99.90;;;;;;4987271;28;20965;-79
2021/03/02 06:42:23;;;;;;;41.15;24.98;;;2.20;99.90;;;;;;4985783;28;20799;-79
2021/03/02 06:44:50;;;;;;;39.10;23.77;;;;;;;;;;4971771;28;20754;-79
2021/03/02 06:47:39;;;;;;;42.10;25.20;;;2.20;99.90;;;;;;4980404;28;21052;-79
2021/03/02 06:50:21;;;;;;;37.53;24.10;;;2.20;99.90;;;;;;4981474;28;20402;-79
2021/03/02 06:52:47;;;;;;;41.00;25.70;;;;;;;;;;4984438;28;20419;-79
2021/03/02 06:55:16;;;;;;;42.15;25.00;;;2.80;99.90;;;;;;4980051;28;20399;-79
2021/03/02 06:57:46;;;;;;;42.40;28.17;;;2.20;99.90;;;;;;4976498;28;20455;-79
2021/03/02 07:00:12;;;;;;;43.88;25.02;;;2.20;99.90;;;;;;4981615;28;20381;-78
2021/03/02 07:02:42;;;;;;;36.13;21.60;;;2.40;99.90;;;;;;4984443;28;20977;-79
2021/03/02 07:05:35;;;;;;;34.40;22.37;;;2.60;99.90;;;;;;4982216;28;20409;-79
2021/03/02 07:08:01;;;;;;;38.25;23.35;;;2.30;99.90;;;;;;4982934;28;20434;-79
2021/03/02 07:10:27;;;;;;;40.63;23.60;;;2.10;99.90;;;;;;4983254;28;21145;-79
2021/03/02 07:12:55;;;;;;;41.40;24.67;;;2.40;99.90;;;;;;4981621;28;20492;-75
2021/03/02 07:15:24;;;;;;;42.63;24.50;;;2.50;99.90;;;;;;4972366;28;20399;-74
2021/03/02 07:17:53;;;;;;;37.90;23.83;;;2.70;99.90;;;;;;4971986;28;20910;-74
2021/03/02 07:20:23;;;;;;;38.55;23.88;;;;;;;;;;4978346;28;20419;-79
2021/03/02 07:22:53;;;;;;;38.90;22.87;;;2.80;99.90;;;;;;4980774;28;20396;-79
2021/03/02 07:25:22;;;;;;;36.17;21.87;;;2.60;99.90;;;;;;4979917;28;20423;-79
2021/03/02 07:28:01;;;;;;;40.78;25.55;;;2.70;99.90;;;;;;4981084;28;20441;-78
2021/03/02 07:30:27;;;;;;;37.80;22.75;;;2.50;99.90;;;;;;4981679;28;20413;-79
2021/03/02 07:32:54;;;;;;;35.97;23.02;;;;;;;;;;4979175;28;20388;-79
2021/03/02 07:35:22;;;;;;;34.13;20.30;;;2.60;99.90;;;;;;4990736;28;20395;-79
2021/03/02 07:37:47;;;;;;;34.38;21.42;;;4.00;99.90;;;;;;4979508;28;20906;-79
2021/03/02 07:40:15;;;;;;;33.90;20.17;;;3.00;99.90;;;;;;4992855;28;20848;-78
2021/03/02 07:42:41;;;;;;;32.85;21.27;;;3.20;99.90;;;;;;4978876;28;20810;-78
2021/03/02 07:45:17;;;;;;;33.47;21.30;;;;;;;;;;4978953;28;20388;-78
2021/03/02 07:47:48;;;;;;;33.75;21.50;;;3.30;99.90;;;;;;4974009;28;20398;-78
2021/03/02 07:50:33;;;;;;;34.60;20.98;;;3.30;99.90;;;;;;4976369;28;20493;-78
2021/03/02 07:53:17;;;;;;;33.78;21.33;;;5.60;99.90;;;;;;4993985;28;20511;-78
2021/03/02 07:55:43;;;;;;;33.65;21.65;;;3.70;99.90;;;;;;4979676;28;20380;-78
2021/03/02 07:58:27;;;;;;;33.28;20.88;;;4.10;99.90;;;;;;4978854;28;20806;-78
2021/03/02 08:01:19;;;;;;;32.05;20.65;;;3.40;99.90;;;;;;4993960;28;20439;-78
2021/03/02 08:03:45;;;;;;;33.80;21.55;;;4.00;99.90;;;;;;4980602;28;20471;-79
2021/03/02 08:06:33;;;;;;;33.28;21.15;;;3.80;99.90;;;;;;4980074;28;20775;-79
2021/03/02 08:09:18;;;;;;;31.95;20.80;;;3.90;99.90;;;;;;4980051;28;20385;-79
2021/03/02 08:11:44;;;;;;;33.30;21.38;;;4.10;99.90;;;;;;4998349;28;20396;-79
2021/03/02 08:14:16;;;;;;;32.30;20.97;;;4.30;99.90;;;;;;4979434;28;20382;-79
2021/03/02 08:16:51;;;;;;;34.60;21.83;;;;;;;;;;4984338;28;20405;-79
2021/03/02 08:19:43;;;;;;;34.88;22.20;;;4.80;99.90;;;;;;4983848;28;20489;-78
2021/03/02 08:22:22;;;;;;;36.83;22.55;;;5.00;99.90;;;;;;4984436;28;20392;-79
2021/03/02 08:25:13;;;;;;;34.42;21.23;;;4.60;99.90;;;;;;4984909;28;20403;-79
2021/03/02 08:27:39;;;;;;;32.35;20.38;;;;;;;;;;4998515;28;20457;-79
2021/03/02 08:30:11;;;;;;;34.17;21.35;;;4.70;99.90;;;;;;4984668;28;20463;-78
2021/03/02 08:32:38;;;;;;;34.47;21.48;;;4.90;99.90;;;;;;4984183;28;20479;-79
2021/03/02 08:35:06;;;;;;;36.35;23.05;;;5.10;99.90;;;;;;4995999;28;20394;-79
2021/03/02 08:37:39;;;;;;;31.10;20.05;;;8.70;99.90;;;;;;4983970;28;20387;-78
2021/03/02 08:40:07;;;;;;;34.95;21.67;;;5.20;99.90;;;;;;4983948;28;20388;-78
2021/03/02 08:42:33;;;;;;;32.60;20.67;;;5.70;99.90;;;;;;4983480;28;20388;-78
2021/03/02 08:45:07;;;;;;;34.22;21.40;;;5.70;99.90;;;;;;4982997;28;20788;-78
2021/03/02 08:47:34;;;;;;;35.05;21.63;;;5.80;99.90;;;;;;4998009;28;20457;-79
2021/03/02 08:50:00;;;;;;;35.85;22.30;;;5.40;99.90;;;;;;4983337;28;20407;-79
2021/03/02 08:52:36;;;;;;;33.33;21.60;;;5.60;99.90;;;;;;4983412;28;20383;-79
2021/03/02 08:55:02;;;;;;;34.35;22.05;;;6.10;99.90;;;;;;4983828;28;20396;-78
2021/03/02 08:57:28;;;;;;;34.33;21.90;;;5.80;99.90;;;;;;4983997;28;20431;-79
2021/03/02 08:59:55;;;;;;;35.43;22.50;;;5.70;99.90;;;;;;4981600;28;20764;-79
2021/03/02 09:02:21;;;;;;;35.30;22.00;;;;;;;;;;4983368;28;20392;-79
2021/03/02 09:04:46;;;;;;;34.80;21.73;;;5.90;99.90;;;;;;4980815;28;20392;-78
2021/03/02 09:07:12;;;;;;;32.80;21.23;;;5.80;99.90;;;;;;4983387;28;20488;-78
2021/03/02 09:09:38;;;;;;;33.97;21.77;;;5.90;99.90;;;;;;4979674;28;21011;-78
2021/03/02 09:12:03;;;;;;;33.70;21.85;;;6.30;99.90;;;;;;4977184;28;20826;-78
2021/03/02 09:14:33;;;;;;;33.30;22.20;;;6.50;99.90;;;;;;4977628;28;20380;-78
2021/03/02 09:17:02;;;;;;;34.43;22.23;;;6.40;99.90;;;;;;4980400;28;20501;-78
2021/03/02 09:19:39;;;;;;;34.78;22.13;;;7.00;99.90;;;;;;4980305;28;20411;-78
2021/03/02 09:22:13;;;;;;;33.95;21.08;;;6.30;99.90;;;;;;4982011;28;20392;-78
2021/03/02 09:24:59;;;;;;;30.45;19.98;;;7.20;99.90;;;;;;4975091;28;20388;-76
2021/03/02 09:27:33;;;;;;;30.40;20.77;;;7.40;99.90;;;;;;4979586;28;20424;-78
2021/03/02 09:29:59;;;;;;;34.40;21.15;;;6.60;99.90;;;;;;4983305;28;20388;-77
2021/03/02 09:32:28;;;;;;;33.30;21.42;;;7.20;99.90;;;;;;4982310;28;20400;-78
2021/03/02 09:34:56;;;;;;;30.05;19.27;;;7.10;99.90;;;;;;4993428;28;20425;-78
2021/03/02 09:37:22;;;;;;;33.78;20.33;;;6.90;99.90;;;;;;4983265;28;20388;-78
2021/03/02 09:40:02;;;;;;;31.25;20.40;;;7.20;99.90;;;;;;4981938;28;20392;-78
2021/03/02 09:42:30;;;;;;;32.60;21.05;;;7.40;99.90;;;;;;4982031;28;20476;-79
2021/03/02 09:44:58;;;;;;;31.52;20.10;;;6.80;99.90;;;;;;4981599;28;20404;-78
2021/03/02 09:47:28;;;;;;;30.03;20.27;;;7.40;99.90;;;;;;4982364;28;20435;-78
2021/03/02 09:50:03;;;;;;;32.22;19.95;;;7.80;99.90;;;;;;4979158;28;20805;-78
2021/03/02 09:52:41;;;;;;;32.63;19.27;;;7.80;99.90;;;;;;4980265;28;20399;-78
2021/03/02 09:55:20;;;;;;;30.00;19.80;;;7.80;99.90;;;;;;4984037;28;20396;-78
2021/03/02 09:58:06;;;;;;;36.90;21.13;;;8.20;99.90;;;;;;4983875;28;20918;-78
2021/03/02 10:00:45;;;;;;;32.17;19.50;;;7.80;99.90;;;;;;4998649;28;20411;-78
2021/03/02 10:03:14;;;;;;;30.65;19.38;;;7.90;99.90;;;;;;4983303;28;20874;-78
2021/03/02 10:05:42;;;;;;;26.95;18.42;;;8.20;99.90;;;;;;4984086;28;20458;-79
2021/03/02 10:08:18;;;;;;;27.42;18.58;;;;;;;;;;4983922;28;20448;-79
2021/03/02 10:10:45;;;;;;;27.33;17.48;;;;;;;;;;4980540;28;20392;-77
2021/03/02 10:13:11;;;;;;;27.95;17.90;;;7.80;99.90;;;;;;4977888;28;20436;-79
2021/03/02 10:15:37;;;;;;;30.17;20.30;;;8.00;99.90;;;;;;4975103;28;20396;-79
2021/03/02 10:18:25;;;;;;;35.22;21.95;;;7.80;99.90;;;;;;4983570;28;20810;-79
2021/03/02 10:21:08;;;;;;;29.85;18.23;;;8.40;99.90;;;;;;4981441;28;20455;-79
2021/03/02 10:23:39;;;;;;;32.63;20.20;;;8.40;99.90;;;;;;4976945;28;20384;-79
2021/03/02 10:26:05;;;;;;;31.63;19.60;;;8.50;99.90;;;;;;4982294;28;20412;-79
2021/03/02 10:28:34;;;;;;;33.90;22.23;;;8.60;99.90;;;;;;4982620;28;20400;-78
2021/03/02 10:31:00;;;;;;;27.00;18.17;;;8.50;99.90;;;;;;4982033;28;20408;-79
2021/03/02 10:33:26;;;;;;;29.57;18.20;;;8.60;99.90;;;;;;4989378;28;20447;-79
2021/03/02 10:35:53;;;;;;;24.08;16.63;;;8.30;99.90;;;;;;4998918;28;20507;-79
2021/03/02 10:38:18;;;;;;;24.95;17.10;;;8.90;99.90;;;;;;4984097;28;20429;-78
2021/03/02 10:40:44;;;;;;;23.77;16.80;;;8.20;99.90;;;;;;4983414;28;20911;-77
2021/03/02 10:43:10;;;;;;;27.58;16.70;;;8.50;99.90;;;;;;4983807;28;20395;-78
2021/03/02 10:45:35;;;;;;;28.92;16.40;;;10.70;99.90;;;;;;4982778;28;20422;-78
2021/03/02 10:48:02;;;;;;;21.52;15.63;;;8.80;99.90;;;;;;4983385;28;20460;-78
2021/03/02 10:50:28;;;;;;;25.02;16.13;;;8.80;99.90;;;;;;4983710;28;20400;-78
2021/03/02 10:52:55;;;;;;;22.93;15.40;;;8.90;99.90;;;;;;4983211;28;20460;-77
2021/03/02 10:55:21;;;;;;;23.67;15.45;;;;;;;;;;4982141;28;20438;-78
2021/03/02 10:57:47;;;;;;;23.47;15.27;;;9.50;99.90;;;;;;4982710;28;20944;-78
2021/03/02 11:00:13;;;;;;;22.20;14.40;;;;;;;;;;4989782;28;20403;-79
2021/03/02 11:02:39;;;;;;;20.52;14.52;;;9.20;99.90;;;;;;4996225;28;20458;-78
2021/03/02 11:05:06;;;;;;;22.98;14.15;;;9.30;99.90;;;;;;4989292;28;20428;-79
2021/03/02 11:07:32;;;;;;;22.25;14.25;;;9.80;99.90;;;;;;4994700;28;20414;-78
2021/03/02 11:09:57;;;;;;;21.87;14.40;;;9.50;99.90;;;;;;4993596;28;20387;-77
2021/03/02 11:12:23;;;;;;;19.93;14.13;;;9.70;99.90;;;;;;4993010;28;20402;-79
2021/03/02 11:14:48;;;;;;;20.03;14.37;;;9.80;99.90;;;;;;4991177;28;20557;-79
2021/03/02 11:17:14;;;;;;;18.60;12.83;;;10.10;99.90;;;;;;4993058;28;20397;-79
2021/03/02 11:19:40;;;;;;;18.33;13.17;;;10.10;99.90;;;;;;4993143;28;20430;-78
2021/03/02 11:22:05;;;;;;;19.90;13.17;;;9.90;99.90;;;;;;4992365;28;20765;-77
2021/03/02 11:24:31;;;;;;;36.20;13.45;;;9.80;99.90;;;;;;4987551;28;20405;-78
2021/03/02 11:26:56;;;;;;;14.82;10.85;;;10.00;99.90;;;;;;4992084;28;20469;-77
2021/03/02 11:29:22;;;;;;;18.05;10.95;;;;;;;;;;4990216;28;20525;-78
2021/03/02 11:31:48;;;;;;;15.05;10.60;;;10.80;99.90;;;;;;4997477;28;20388;-77
2021/03/02 11:34:13;;;;;;;14.35;10.35;;;10.60;99.90;;;;;;4994476;28;20389;-78
2021/03/02 11:36:39;;;;;;;14.38;10.05;;;;;;;;;;4998843;28;20465;-79
2021/03/02 11:39:05;;;;;;;15.48;10.02;;;11.50;99.90;;;;;;4989224;28;20403;-78
2021/03/02 11:41:30;;;;;;;14.13;9.57;;;11.30;99.90;;;;;;4989117;28;20392;-78
2021/03/02 11:43:56;;;;;;;17.48;9.63;;;10.80;99.90;;;;;;4993553;28;20387;-78
2021/03/02 11:46:21;;;;;;;13.20;9.13;;;11.20;99.90;;;;;;4991103;28;20901;-78
2021/03/02 11:48:47;;;;;;;13.60;8.80;;;11.10;99.90;;;;;;4990464;28;20397;-78
2021/03/02 11:51:12;;;;;;;13.33;9.27;;;11.30;99.90;;;;;;4991738;28;20402;-79
2021/03/02 11:53:38;;;;;;;15.27;9.53;;;11.40;99.90;;;;;;4989629;28;20449;-78
2021/03/02 11:56:04;;;;;;;12.02;8.48;;;11.30;99.90;;;;;;4992491;28;20402;-79
2021/03/02 11:58:29;;;;;;;11.02;8.15;;;11.90;99.90;;;;;;4990183;28;20762;-78
2021/03/02 12:00:55;;;;;;;16.63;9.30;;;11.70;99.90;;;;;;4992555;28;20461;-79
2021/03/02 12:03:23;;;;;;;14.02;9.38;;;12.30;99.90;;;;;;4989582;28;20435;-77
2021/03/02 12:05:49;;;;;;;12.00;8.32;;;12.30;99.90;;;;;;4991662;28;20407;-79
2021/03/02 12:08:15;;;;;;;19.30;8.90;;;12.70;99.90;;;;;;4991382;28;20396;-80
2021/03/02 12:10:41;;;;;;;13.33;8.37;;;;;;;;;;4983019;28;20947;-82
2021/03/02 12:13:13;;;;;;;13.55;8.43;;;14.60;99.90;;;;;;4976547;28;20923;-81
2021/03/02 12:15:40;;;;;;;11.68;8.10;;;14.30;99.90;;;;;;4985809;28;20473;-81
2021/03/02 12:18:07;;;;;;;11.10;8.10;;;15.60;97.10;;;;;;4979149;28;20522;-82
2021/03/02 12:20:36;;;;;;;14.20;8.55;;;14.40;96.70;;;;;;5000866;28;20402;-81
2021/03/02 12:23:02;;;;;;;14.25;7.63;;;15.70;94.40;;;;;;4968587;28;20395;-82
2021/03/02 12:25:28;;;;;;;15.30;7.45;;;15.70;90.20;;;;;;4982333;28;20394;-82
2021/03/02 12:27:54;;;;;;;11.73;8.20;;;16.70;90.20;;;;;;4981894;28;20402;-82
2021/03/02 12:30:20;;;;;;;10.38;7.30;;;16.40;86.30;;;;;;4983125;28;20434;-75
2021/03/02 12:32:45;;;;;;;10.70;7.40;;;17.10;86.60;;;;;;4980898;28;20422;-80
2021/03/02 12:35:11;;;;;;;11.23;7.70;;;17.10;81.50;;;;;;4973614;28;20891;-80
2021/03/02 12:37:37;;;;;;;13.73;9.40;;;17.40;77.60;;;;;;4969581;28;20402;-80
2021/03/02 12:40:04;;;;;;;12.65;9.23;;;20.70;88.60;;;;;;4967718;28;20388;-81
2021/03/02 12:42:34;;;;;;;15.85;10.48;;;17.30;80.40;;;;;;4972965;28;20380;-80
2021/03/02 12:45:00;;;;;;;15.18;10.27;;;16.80;83.50;;;;;;4973200;28;20384;-81
2021/03/02 12:47:25;;;;;;;16.00;10.83;;;15.50;91.70;;;;;;4972825;28;20396;-79
2021/03/02 12:49:51;;;;;;;15.10;10.17;;;15.70;92.00;;;;;;4972537;28;20521;-79
2021/03/02 12:52:20;;;;;;;13.30;10.35;;;15.60;93.50;;;;;;4972008;28;20410;-79
2021/03/02 12:54:46;;;;;;;13.98;9.52;;;15.20;93.20;;;;;;4972514;28;20397;-80
2021/03/02 12:57:12;;;;;;;16.55;10.30;;;15.20;93.00;;;;;;4974687;28;20474;-79